Portada
METAR-TAF:

METAR-TAF

Aeropuertos :

Nador, Marruecos

Aeropuerto Internacional de Nador

latitud: 34-59-20N, longitud: 003-01-42W, altitud: 175 m

Observación

El informe se hizo hace 21 minutos, a las 11:00 UTC
Viento 5 kt del sureste, variando entre este y sur
Temperatura 21°C
Humedad 21%
Presión 1021 hPa
Visibilidad 10 km o más
sin nubes por debajo de 1500 m y sin presencia de cumulonimbus.

METAR: GMMW 231100Z 13005KT 090V190 CAVOK 21/M02 Q1021 NOSIG

Hora: 11:21 (11:21 UTC)

Pronóstico

El informe se hizo hace 6 horas y 21 minutos, a las 05:00 UTC
Pronóstico válido del 23 a las 06 UTC al 24 a las 12 UTC
Viento 4 kt del sur
Visibilidad: 6000 m
Evolucionando progresivamente
del 23 a las 08 UTC al 23 a las 10 UTC
Visibilidad 10 km o más
sin nubes por debajo de 1500 m y sin presencia de cumulonimbus.

TAF: GMMW 230500Z 2306/2412 18004KT 6000 NSC BECMG 2308/2310 CAVOK

Observaciones y pronósticos meteorológicos de más de 4000 aeropuertos (mensajes METAR y TAF).

Los puntos amarillos y rojos representan las estaciones disponibles.

Ponga el ratón en el punto deseado para ver el nombre de la estación.

Haga clic para ver las observaciones y los pronósticos meteorológicos.

Para cambiar el mapa : haga clic en los botones verdes con una cruz de color negro para hacer un zoom, en el botón verde con un guión para alejar o en las flechas verdes para mapas adyacentes.


METAR-TAF: